Time;durP1;ratioP1;P1;durP2;ratioP2;P2;SDS_P1;SDS_P2;PMS_P1;PMS_P2;Temp;Humidity;BMP_temperature;BMP_pressure;BME280_temperature;BME280_humidity;BME280_pressure;Samples;Min_cycle;Max_cycle;Signal;HPM_P1;HPM_P2
2023/09/10 03:02:51;;;;;;;;;;;23.10;57.00;;;;;;4860456;28;46561;-82
2023/09/10 03:05:16;;;;;;;;;;;23.10;57.00;;;;;;4871322;28;46796;-82
2023/09/10 03:07:42;;;;;;;;;;;23.10;57.00;;;;;;4886708;28;45019;-82
2023/09/10 03:10:08;;;;;;;;;;;23.10;57.00;;;;;;4856473;28;45153;-81
2023/09/10 03:12:34;;;;;;;;;;;23.10;57.00;;;;;;4865043;28;45286;-81
2023/09/10 03:15:00;;;;;;;;;;;23.10;57.00;;;;;;4876411;28;45395;-82
2023/09/10 03:17:25;;;;;;;;;;;23.10;57.00;;;;;;4878575;28;45422;-82
2023/09/10 03:19:51;;;;;;;;;;;23.10;56.90;;;;;;4880226;28;45318;-82
2023/09/10 03:22:17;;;;;;;;;;;23.10;57.00;;;;;;4876591;28;45279;-82
2023/09/10 03:24:43;;;;;;;;;;;23.10;56.90;;;;;;4892904;28;45604;-82
2023/09/10 03:27:09;;;;;;;;;;;23.10;56.90;;;;;;4874149;28;45424;-82
2023/09/10 03:29:35;;;;;;;;;;;23.10;57.00;;;;;;4867380;28;45489;-82
2023/09/10 03:32:02;;;;;;;;;;;23.10;56.90;;;;;;4868912;28;45248;-82
2023/09/10 03:34:29;;;;;;;;;;;23.10;56.90;;;;;;4877733;28;45474;-82
2023/09/10 03:36:54;;;;;;;;;;;23.10;56.90;;;;;;4864321;28;45268;-82
2023/09/10 03:39:20;;;;;;;;;;;23.10;56.90;;;;;;4908045;28;45396;-83
2023/09/10 03:41:45;;;;;;;;;;;23.10;56.90;;;;;;4859627;28;45315;-81
2023/09/10 03:44:11;;;;;;;;;;;23.10;56.90;;;;;;4873327;28;46154;-81
2023/09/10 03:46:37;;;;;;;;;;;23.10;56.80;;;;;;4886330;28;45561;-82
2023/09/10 03:49:03;;;;;;;;;;;23.10;56.80;;;;;;4884561;28;45412;-82
2023/09/10 03:51:29;;;;;;;;;;;23.10;56.80;;;;;;4871039;28;45286;-82
2023/09/10 03:53:54;;;;;;;;;;;23.10;56.80;;;;;;4881156;28;47157;-82
2023/09/10 03:56:22;;;;;;;;;;;23.10;56.80;;;;;;4874244;28;46034;-84
2023/09/10 03:58:47;;;;;;;;;;;23.10;56.80;;;;;;4882355;28;45240;-83
2023/09/10 04:01:13;;;;;;;;;;;23.10;56.80;;;;;;4877946;28;45341;-82
2023/09/10 04:03:39;;;;;;;;;;;23.10;56.80;;;;;;4892356;28;46300;-83
2023/09/10 04:06:04;;;;;;;;;;;23.00;56.70;;;;;;4890240;28;45292;-83
2023/09/10 04:08:30;;;;;;;;;;;23.00;56.70;;;;;;4862327;28;45451;-83
2023/09/10 04:10:56;;;;;;;;;;;23.10;56.80;;;;;;4876321;28;44843;-83
2023/09/10 04:13:21;;;;;;;;;;;23.10;56.80;;;;;;4864805;28;45837;-83
2023/09/10 04:15:47;;;;;;;;;;;23.10;56.80;;;;;;4886701;28;45438;-82
2023/09/10 04:18:13;;;;;;;;;;;23.10;56.80;;;;;;4876895;28;45222;-81
2023/09/10 04:20:39;;;;;;;;;;;23.10;56.80;;;;;;4874731;28;45172;-82
2023/09/10 04:23:05;;;;;;;;;;;23.10;56.80;;;;;;4883018;28;45499;-83
2023/09/10 04:25:31;;;;;;;;;;;23.00;56.70;;;;;;4869188;28;45427;-82
2023/09/10 04:27:57;;;;;;;;;;;23.00;56.70;;;;;;4900415;28;44971;-82
2023/09/10 04:30:22;;;;;;;;;;;23.00;56.70;;;;;;4880115;28;45797;-82
2023/09/10 04:32:48;;;;;;;;;;;23.00;56.70;;;;;;4884258;28;46342;-82
2023/09/10 04:35:14;;;;;;;;;;;23.00;56.70;;;;;;4873977;28;45525;-82
2023/09/10 04:37:39;;;;;;;;;;;23.10;56.70;;;;;;4912135;28;45675;-82
2023/09/10 04:40:07;;;;;;;;;;;23.00;56.70;;;;;;4900315;28;45182;-81
2023/09/10 04:42:33;;;;;;;;;;;23.00;56.70;;;;;;4860796;28;47290;-83
2023/09/10 04:44:58;;;;;;;;;;;23.00;56.70;;;;;;4898441;28;46455;-81
2023/09/10 04:47:24;;;;;;;;;;;23.00;56.70;;;;;;4869244;28;45396;-82
2023/09/10 04:49:50;;;;;;;;;;;23.00;56.60;;;;;;4889639;28;45506;-82
2023/09/10 04:52:15;;;;;;;;;;;23.00;56.70;;;;;;4886062;28;45975;-82
2023/09/10 04:54:41;;;;;;;;;;;23.00;56.70;;;;;;4885126;28;45034;-84
2023/09/10 04:57:07;;;;;;;;;;;23.00;56.60;;;;;;4886609;28;45474;-82
2023/09/10 04:59:33;;;;;;;;;;;23.00;56.60;;;;;;4882612;28;46731;-83
2023/09/10 05:02:00;;;;;;;;;;;23.00;56.70;;;;;;4849306;28;47375;-82
2023/09/10 05:04:26;;;;;;;;;;;23.00;56.60;;;;;;4873115;28;45661;-83
2023/09/10 05:06:51;;;;;;;;;;;23.00;56.60;;;;;;4900529;28;45524;-83
2023/09/10 05:09:17;;;;;;;;;;;23.00;56.60;;;;;;4915478;28;45946;-83
2023/09/10 05:11:42;;;;;;;;;;;23.00;56.60;;;;;;4892144;28;46184;-82
2023/09/10 05:14:08;;;;;;;;;;;23.00;56.60;;;;;;4881505;28;45309;-82
2023/09/10 05:16:35;;;;;;;;;;;23.00;56.60;;;;;;4865810;28;45837;-82
2023/09/10 05:19:01;;;;;;;;;;;23.00;57.20;;;;;;4878935;29;45261;-82
2023/09/10 05:21:26;;;;;;;;;;;23.00;56.60;;;;;;4889949;28;46480;-83
2023/09/10 05:23:52;;;;;;;;;;;23.00;56.60;;;;;;4874778;28;45077;-83
2023/09/10 05:26:18;;;;;;;;;;;23.00;56.60;;;;;;4892386;28;45489;-83
2023/09/10 05:28:43;;;;;;;;;;;23.00;56.60;;;;;;4890339;28;44918;-82
2023/09/10 05:31:09;;;;;;;;;;;23.00;56.60;;;;;;4882902;28;46405;-82
2023/09/10 05:33:35;;;;;;;;;;;23.00;56.60;;;;;;4886360;28;45426;-82
2023/09/10 05:36:00;;;;;;;;;;;23.00;56.60;;;;;;4879616;28;45779;-83
2023/09/10 05:38:26;;;;;;;;;;;23.00;56.60;;;;;;4887807;28;45581;-82
2023/09/10 05:40:51;;;;;;;;;;;23.00;56.60;;;;;;4869984;28;46319;-82
2023/09/10 05:43:17;;;;;;;;;;;23.00;56.60;;;;;;4892740;28;45085;-82
2023/09/10 05:45:44;;;;;;;;;;;23.00;56.60;;;;;;4882519;28;45328;-82
2023/09/10 05:48:10;;;;;;;;;;;23.00;56.60;;;;;;4873361;28;45185;-82
2023/09/10 05:50:36;;;;;;;;;;;23.00;56.60;;;;;;4875259;28;46392;-82
2023/09/10 05:53:02;;;;;;;;;;;23.00;56.60;;;;;;4877286;28;45729;-82
2023/09/10 05:55:28;;;;;;;;;;;23.00;56.60;;;;;;4881792;28;45462;-82
2023/09/10 05:57:54;;;;;;;;;;;23.00;56.60;;;;;;4874171;28;45585;-81
2023/09/10 06:00:20;;;;;;;;;;;23.00;56.60;;;;;;4877948;28;45565;-85
2023/09/10 06:02:45;;;;;;;;;;;23.00;56.60;;;;;;4882812;28;46238;-82
2023/09/10 06:05:11;;;;;;;;;;;23.00;56.60;;;;;;4871680;28;45547;-82
2023/09/10 06:07:37;;;;;;;;;;;23.00;56.60;;;;;;4890588;28;45773;-82
2023/09/10 06:10:06;;;;;;;;;;;23.00;56.60;;;;;;4870429;28;45823;-81
2023/09/10 06:12:31;;;;;;;;;;;23.00;56.60;;;;;;4867503;28;45731;-82
2023/09/10 06:14:57;;;;;;;;;;;23.00;56.60;;;;;;4891621;28;44732;-83
2023/09/10 06:17:22;;;;;;;;;;;23.00;56.60;;;;;;4876442;28;45591;-81
2023/09/10 06:19:51;;;;;;;;;;;23.00;56.60;;;;;;4877733;28;45210;-82
2023/09/10 06:22:17;;;;;;;;;;;23.00;56.60;;;;;;4876786;28;45560;-82
2023/09/10 06:24:42;;;;;;;;;;;23.00;56.60;;;;;;4876701;28;45269;-83
2023/09/10 06:27:08;;;;;;;;;;;23.00;56.60;;;;;;4895819;28;45860;-82
2023/09/10 06:29:34;;;;;;;;;;;22.90;56.60;;;;;;4886626;28;45717;-83
2023/09/10 06:32:00;;;;;;;;;;;23.00;56.60;;;;;;4891112;28;45150;-82
2023/09/10 06:34:25;;;;;;;;;;;23.00;56.70;;;;;;4889363;28;45711;-82
2023/09/10 06:36:51;;;;;;;;;;;23.00;56.60;;;;;;4891943;28;45683;-81
2023/09/10 06:39:16;;;;;;;;;;;23.00;56.60;;;;;;4876758;28;45932;-82
2023/09/10 06:41:41;;;;;;;;;;;23.00;56.60;;;;;;4895335;28;45113;-82
2023/09/10 06:44:07;;;;;;;;;;;23.00;56.60;;;;;;4870178;28;45672;-82
2023/09/10 06:46:33;;;;;;;;;;;23.00;56.60;;;;;;4882117;28;45521;-83
2023/09/10 06:48:59;;;;;;;;;;;23.00;56.60;;;;;;4873679;28;46500;-82
2023/09/10 06:51:27;;;;;;;;;;;23.00;57.20;;;;;;4885527;28;44924;-82
2023/09/10 06:53:52;;;;;;;;;;;23.00;56.60;;;;;;4886420;28;45640;-82
2023/09/10 06:56:18;;;;;;;;;;;23.00;56.70;;;;;;4868616;28;45257;-82
2023/09/10 06:58:44;;;;;;;;;;;23.00;56.70;;;;;;4895212;28;45544;-82
2023/09/10 07:01:09;;;;;;;;;;;23.00;56.70;;;;;;4861773;28;45731;-82
2023/09/10 07:03:35;;;;;;;;;;;23.00;56.70;;;;;;4858253;28;45821;-81
2023/09/10 07:06:04;;;;;;;;;;;23.00;56.70;;;;;;4859459;28;45654;-82
2023/09/10 07:08:30;;;;;;;;;;;23.00;56.70;;;;;;4883172;28;45619;-82
2023/09/10 07:10:56;;;;;;;;;;;22.90;56.70;;;;;;4869656;28;45479;-81
2023/09/10 07:13:21;;;;;;;;;;;23.00;56.70;;;;;;4890913;28;45135;-82
2023/09/10 07:15:47;;;;;;;;;;;23.00;56.70;;;;;;4880537;28;45697;-82
2023/09/10 07:18:13;;;;;;;;;;;23.00;56.70;;;;;;4888533;28;45837;-81
2023/09/10 07:20:40;;;;;;;;;;;23.00;56.70;;;;;;4878759;28;45389;-83
2023/09/10 07:23:05;;;;;;;;;;;23.00;56.70;;;;;;4866540;28;46050;-83
2023/09/10 07:25:32;;;;;;;;;;;23.00;56.70;;;;;;4884112;28;45880;-82
2023/09/10 07:27:57;;;;;;;;;;;23.00;56.70;;;;;;4890695;28;47094;-82
2023/09/10 07:30:23;;;;;;;;;;;22.90;56.70;;;;;;4867671;28;45201;-82
2023/09/10 07:32:48;;;;;;;;;;;23.00;56.70;;;;;;4866807;28;45251;-81
2023/09/10 07:35:16;;;;;;;;;;;22.90;56.70;;;;;;4862944;28;46193;-82
2023/09/10 07:37:42;;;;;;;;;;;23.00;56.70;;;;;;4885488;28;45734;-82
2023/09/10 07:40:09;;;;;;;;;;;23.00;56.70;;;;;;4886425;28;45280;-82
2023/09/10 07:42:35;;;;;;;;;;;23.00;56.70;;;;;;4855391;28;45640;-82
2023/09/10 07:45:00;;;;;;;;;;;23.00;56.70;;;;;;4899158;28;47288;-82
2023/09/10 07:47:26;;;;;;;;;;;23.00;56.70;;;;;;4863488;28;46241;-82
2023/09/10 07:49:52;;;;;;;;;;;23.00;56.70;;;;;;4898198;28;45486;-83
2023/09/10 07:52:17;;;;;;;;;;;22.90;56.70;;;;;;4864742;28;45806;-81
2023/09/10 07:54:43;;;;;;;;;;;23.00;56.70;;;;;;4872588;28;45574;-82
2023/09/10 07:57:08;;;;;;;;;;;23.00;56.70;;;;;;4879523;28;45897;-82
2023/09/10 07:59:34;;;;;;;;;;;23.00;56.70;;;;;;4870141;28;45212;-83
2023/09/10 08:02:01;;;;;;;;;;;23.00;56.70;;;;;;4874913;28;46195;-82
2023/09/10 08:04:27;;;;;;;;;;;23.00;56.70;;;;;;4883322;28;44993;-82
2023/09/10 08:06:53;;;;;;;;;;;23.00;56.80;;;;;;4878031;28;46773;-83
2023/09/10 08:09:19;;;;;;;;;;;23.00;56.70;;;;;;4903447;28;45544;-82
2023/09/10 08:11:53;;;;;;;;;;;23.00;56.70;;;;;;5023660;27;45174;-49
2023/09/10 08:14:18;;;;;;;;;;;23.00;56.70;;;;;;4984762;27;46958;-49
2023/09/10 08:16:44;;;;;;;;;;;23.00;56.70;;;;;;5001257;27;45572;-50
2023/09/10 08:19:10;;;;;;;;;;;23.00;56.70;;;;;;5028307;27;45755;-50
2023/09/10 08:21:35;;;;;;;;;;;23.00;56.70;;;;;;5017733;27;46017;-51
2023/09/10 08:24:01;;;;;;;;;;;23.00;56.80;;;;;;5024269;27;45246;-53
2023/09/10 08:26:26;;;;;;;;;;;23.00;56.70;;;;;;5009344;27;44984;-54
2023/09/10 08:28:52;;;;;;;;;;;23.00;56.80;;;;;;5022199;27;45282;-54
2023/09/10 08:31:17;;;;;;;;;;;23.00;56.70;;;;;;5010587;27;46540;-51
2023/09/10 08:33:43;;;;;;;;;;;23.00;56.80;;;;;;5024203;27;45880;-52
2023/09/10 08:36:08;;;;;;;;;;;23.00;57.00;;;;;;5025536;27;46069;-52
2023/09/10 08:38:34;;;;;;;;;;;23.00;56.70;;;;;;5034664;27;45274;-50
2023/09/10 08:41:00;;;;;;;;;;;23.00;56.80;;;;;;5029346;27;46165;-50
2023/09/10 08:43:31;;;;;;;;;;;23.00;56.80;;;;;;5067379;27;45424;-51
2023/09/10 08:45:56;;;;;;;;;;;23.00;56.80;;;;;;5030829;27;45524;-54
2023/09/10 08:48:22;;;;;;;;;;;23.00;56.80;;;;;;5072727;27;44713;-52
2023/09/10 08:50:47;;;;;;;;;;;23.00;56.80;;;;;;5040688;27;45917;-51
2023/09/10 08:53:13;;;;;;;;;;;23.00;56.80;;;;;;5057423;27;45220;-53
2023/09/10 08:55:40;;;;;;;;;;;23.00;56.80;;;;;;5041610;27;46955;-53
2023/09/10 08:58:08;;;;;;;;;;;23.00;56.80;;;;;;5055938;27;45357;-52
2023/09/10 09:00:33;;;;;;;;;;;23.00;56.80;;;;;;5039342;27;46002;-51
2023/09/10 09:02:59;;;;;;;;;;;23.00;56.80;;;;;;5047837;27;45920;-49
2023/09/10 09:05:25;;;;;;;;;;;23.00;56.80;;;;;;5062485;27;45833;-52
2023/09/10 09:07:51;;;;;;;;;;;23.00;56.80;;;;;;5068522;27;45324;-51
2023/09/10 09:10:26;;;;;;;;;;;23.00;56.80;;;;;;5069512;27;45865;-54
2023/09/10 09:12:54;;;;;;;;;;;23.00;56.80;;;;;;5061710;27;45415;-51
2023/09/10 09:15:19;;;;;;;;;;;23.00;56.80;;;;;;5053663;27;45933;-55
2023/09/10 09:17:45;;;;;;;;;;;23.00;56.80;;;;;;5065171;27;45286;-53
2023/09/10 09:20:11;;;;;;;;;;;23.00;56.80;;;;;;5062073;27;45299;-54
2023/09/10 09:22:39;;;;;;;;;;;23.00;56.80;;;;;;5052973;27;45959;-50
2023/09/10 09:25:06;;;;;;;;;;;23.00;56.80;;;;;;5012639;27;46642;-53
2023/09/10 09:27:31;;;;;;;;;;;23.00;56.90;;;;;;5013580;27;45418;-48
2023/09/10 09:29:57;;;;;;;;;;;23.00;56.80;;;;;;5032668;27;45861;-50
2023/09/10 09:32:24;;;;;;;;;;;23.00;56.90;;;;;;4994735;27;45456;-48
2023/09/10 09:34:50;;;;;;;;;;;23.00;56.90;;;;;;5046848;27;45414;-52
2023/09/10 09:37:21;;;;;;;;;;;23.00;56.80;;;;;;5037168;27;45633;-51
2023/09/10 09:39:49;;;;;;;;;;;23.00;56.80;;;;;;5048560;27;46032;-49
2023/09/10 09:42:15;;;;;;;;;;;23.00;56.90;;;;;;5028461;27;45564;-52
2023/09/10 09:44:41;;;;;;;;;;;23.00;56.90;;;;;;5048163;27;46100;-51
2023/09/10 09:47:11;;;;;;;;;;;23.00;56.90;;;;;;5031414;27;45290;-49
2023/09/10 09:49:44;;;;;;;;;;;23.00;56.90;;;;;;5050490;27;46641;-51
2023/09/10 09:52:09;;;;;;;;;;;23.00;56.90;;;;;;5034104;27;44948;-52
2023/09/10 09:54:35;;;;;;;;;;;23.00;56.90;;;;;;5050034;27;45887;-53
2023/09/10 09:57:02;;;;;;;;;;;23.00;56.90;;;;;;5037617;27;45687;-53
2023/09/10 09:59:27;;;;;;;;;;;23.00;56.90;;;;;;5049167;27;45825;-49
2023/09/10 10:01:53;;;;;;;;;;;23.00;56.90;;;;;;5023359;27;45803;-48
2023/09/10 10:04:20;;;;;;;;;;;23.00;56.90;;;;;;5046131;27;45747;-50
2023/09/10 10:06:46;;;;;;;;;;;23.00;56.90;;;;;;5026270;27;46012;-51
2023/09/10 10:09:11;;;;;;;;;;;23.00;56.90;;;;;;5038536;27;45405;-52
2023/09/10 10:11:37;;;;;;;;;;;23.00;56.90;;;;;;5042814;27;46365;-48
2023/09/10 10:14:03;;;;;;;;;;;23.00;56.90;;;;;;5030431;27;45930;-50
2023/09/10 10:16:29;;;;;;;;;;;23.00;57.00;;;;;;5021755;27;46155;-48
2023/09/10 10:18:54;;;;;;;;;;;23.00;56.90;;;;;;5030979;27;46499;-48
2023/09/10 10:21:21;;;;;;;;;;;23.00;56.90;;;;;;5039743;27;45879;-50
2023/09/10 10:23:47;;;;;;;;;;;23.00;56.90;;;;;;5049268;27;46056;-51
2023/09/10 10:26:12;;;;;;;;;;;23.00;56.90;;;;;;5020517;27;46052;-50
2023/09/10 10:28:38;;;;;;;;;;;23.00;56.90;;;;;;5043493;27;45491;-52
2023/09/10 10:31:04;;;;;;;;;;;23.00;56.90;;;;;;5012569;27;45265;-48
2023/09/10 10:33:30;;;;;;;;;;;23.00;56.90;;;;;;5005847;27;45478;-50
2023/09/10 10:36:03;;;;;;;;;;;23.00;56.90;;;;;;5021902;27;45359;-51
2023/09/10 10:38:31;;;;;;;;;;;23.10;57.00;;;;;;5047241;27;45728;-51
2023/09/10 10:40:56;;;;;;;;;;;23.00;56.90;;;;;;5032723;27;45413;-53
2023/09/10 10:43:25;;;;;;;;;;;23.10;57.00;;;;;;5024026;27;45439;-51
2023/09/10 10:45:52;;;;;;;;;;;23.10;57.00;;;;;;5032221;27;46361;-52
2023/09/10 10:48:18;;;;;;;;;;;23.10;57.00;;;;;;5033294;27;45984;-51
2023/09/10 10:50:44;;;;;;;;;;;23.10;57.00;;;;;;5038850;27;45326;-51
2023/09/10 10:53:11;;;;;;;;;;;23.10;57.00;;;;;;5048564;27;45559;-54
2023/09/10 10:55:37;;;;;;;;;;;23.10;57.00;;;;;;5040928;27;45872;-56
2023/09/10 10:58:02;;;;;;;;;;;23.10;57.00;;;;;;5012472;27;45287;-55
2023/09/10 11:00:28;;;;;;;;;;;23.10;57.00;;;;;;5012285;27;45866;-51
2023/09/10 11:03:09;;;;;;;;;;;23.10;57.00;;;;;;5019612;27;45986;-52
2023/09/10 11:05:54;;;;;;;;;;;23.10;57.60;;;;;;5042144;27;45726;-50
2023/09/10 11:08:28;;;;;;;;;;;23.10;57.00;;;;;;5050221;27;46657;-54
2023/09/10 11:10:53;;;;;;;;;;;23.10;57.00;;;;;;5036034;27;45701;-51
2023/09/10 11:13:19;;;;;;;;;;;23.10;57.00;;;;;;5030084;27;46352;-52
2023/09/10 11:16:09;;;;;;;;;;;23.10;57.00;;;;;;5013849;27;45626;-52
2023/09/10 11:18:34;;;;;;;;;;;23.10;57.10;;;;;;5040118;27;46055;-54
2023/09/10 11:21:00;;;;;;;;;;;23.10;57.00;;;;;;5036887;27;45933;-51
2023/09/10 11:23:25;;;;;;;;;;;23.10;57.00;;;;;;5051029;27;45662;-54
2023/09/10 11:25:51;;;;;;;;;;;23.10;57.10;;;;;;5038305;27;45774;-51
2023/09/10 11:28:35;;;;;;;;;;;23.10;57.10;;;;;;5050537;27;46211;-54
2023/09/10 11:31:02;;;;;;;;;;;23.10;57.10;;;;;;5013023;27;45741;-54
2023/09/10 11:33:29;;;;;;;;;;;23.10;57.10;;;;;;5026943;27;45410;-51
2023/09/10 11:35:54;;;;;;;;;;;23.10;57.10;;;;;;5035580;27;45482;-51
2023/09/10 11:38:20;;;;;;;;;;;23.10;57.10;;;;;;5033474;27;46416;-49
2023/09/10 11:40:45;;;;;;;;;;;23.10;57.70;;;;;;5041296;27;46489;-51
2023/09/10 11:43:11;;;;;;;;;;;23.10;57.10;;;;;;5045771;27;45431;-50
2023/09/10 11:45:36;;;;;;;;;;;23.10;57.10;;;;;;5018079;27;45753;-50
2023/09/10 11:48:02;;;;;;;;;;;23.10;57.10;;;;;;5039458;27;45235;-51
2023/09/10 11:50:28;;;;;;;;;;;23.10;57.10;;;;;;5042131;27;45772;-50
2023/09/10 11:52:53;;;;;;;;;;;23.10;57.10;;;;;;5048290;27;45517;-50
2023/09/10 11:55:19;;;;;;;;;;;23.10;57.10;;;;;;5040529;27;45634;-51
2023/09/10 11:57:44;;;;;;;;;;;23.10;57.10;;;;;;5030867;27;46121;-51
2023/09/10 12:00:11;;;;;;;;;;;23.10;57.20;;;;;;5019754;27;45729;-50
2023/09/10 12:02:36;;;;;;;;;;;23.10;57.20;;;;;;5027428;27;45566;-49
2023/09/10 12:05:06;;;;;;;;;;;23.10;57.20;;;;;;5042049;27;45668;-52
2023/09/10 12:07:31;;;;;;;;;;;23.10;57.20;;;;;;5046493;27;45416;-49
2023/09/10 12:09:56;;;;;;;;;;;23.10;57.20;;;;;;5042956;27;45887;-49
2023/09/10 12:12:24;;;;;;;;;;;23.10;57.20;;;;;;5042831;27;45319;-50
2023/09/10 12:14:49;;;;;;;;;;;23.10;57.20;;;;;;5032752;27;45830;-52
2023/09/10 12:17:15;;;;;;;;;;;23.10;57.20;;;;;;5010246;27;45430;-51
2023/09/10 12:19:40;;;;;;;;;;;23.10;57.20;;;;;;5033864;27;45982;-48
2023/09/10 12:22:09;;;;;;;;;;;23.10;57.20;;;;;;5037771;27;45286;-50
2023/09/10 12:24:38;;;;;;;;;;;23.10;57.20;;;;;;5037575;27;46015;-52
2023/09/10 12:27:03;;;;;;;;;;;23.10;57.20;;;;;;5035711;27;46956;-49
2023/09/10 12:29:29;;;;;;;;;;;23.20;57.20;;;;;;5052482;27;46372;-50
2023/09/10 12:31:56;;;;;;;;;;;23.10;57.20;;;;;;5034733;27;45274;-49
2023/09/10 12:34:22;;;;;;;;;;;23.10;57.30;;;;;;5040641;27;46534;-51
2023/09/10 12:36:48;;;;;;;;;;;23.20;57.30;;;;;;5039206;27;45816;-52
2023/09/10 12:39:20;;;;;;;;;;;23.20;57.30;;;;;;5047710;27;45471;-52
2023/09/10 12:41:49;;;;;;;;;;;23.20;57.30;;;;;;5044930;27;45265;-49
2023/09/10 12:44:14;;;;;;;;;;;23.20;57.30;;;;;;5048015;27;45235;-51
2023/09/10 12:46:40;;;;;;;;;;;23.20;57.30;;;;;;5020501;27;45325;-52
2023/09/10 12:49:05;;;;;;;;;;;23.10;57.30;;;;;;5051722;27;46046;-49
2023/09/10 12:51:31;;;;;;;;;;;23.20;57.30;;;;;;5035678;27;46215;-48
2023/09/10 12:53:56;;;;;;;;;;;23.20;57.30;;;;;;5038295;27;46678;-49
2023/09/10 12:56:22;;;;;;;;;;;23.20;57.40;;;;;;5022304;27;46384;-49
2023/09/10 12:58:47;;;;;;;;;;;23.20;57.40;;;;;;5060115;27;46099;-50
2023/09/10 13:01:14;;;;;;;;;;;23.20;57.30;;;;;;5031524;27;45529;-51
2023/09/10 13:03:40;;;;;;;;;;;23.20;57.40;;;;;;5055119;27;44989;-49
2023/09/10 13:06:05;;;;;;;;;;;23.20;57.30;;;;;;5036121;27;45131;-49
2023/09/10 13:08:30;;;;;;;;;;;23.20;57.40;;;;;;5055447;27;45600;-52
2023/09/10 13:10:56;;;;;;;;;;;23.20;57.40;;;;;;5043054;27;45585;-51
2023/09/10 13:13:21;;;;;;;;;;;23.20;57.40;;;;;;5053513;27;45853;-49
2023/09/10 13:15:47;;;;;;;;;;;23.20;57.40;;;;;;5030562;27;45244;-51
2023/09/10 13:18:12;;;;;;;;;;;23.20;57.40;;;;;;5047254;27;45822;-50
2023/09/10 13:20:38;;;;;;;;;;;23.20;57.40;;;;;;5044514;27;45322;-52
2023/09/10 13:23:04;;;;;;;;;;;23.20;57.40;;;;;;5028491;27;46527;-51
2023/09/10 13:25:29;;;;;;;;;;;23.20;57.40;;;;;;5041216;27;45983;-51
2023/09/10 13:27:56;;;;;;;;;;;23.20;57.40;;;;;;5049772;27;45240;-50
2023/09/10 13:30:22;;;;;;;;;;;23.20;57.40;;;;;;5035588;27;45778;-51
2023/09/10 13:32:48;;;;;;;;;;;23.20;57.40;;;;;;5044574;27;45621;-49
2023/09/10 13:35:13;;;;;;;;;;;23.20;57.40;;;;;;5043433;27;46064;-51
2023/09/10 13:37:40;;;;;;;;;;;23.20;57.40;;;;;;5054393;27;45716;-50
2023/09/10 13:40:06;;;;;;;;;;;23.20;58.00;;;;;;5029420;27;45484;-50
2023/09/10 13:42:31;;;;;;;;;;;23.20;57.40;;;;;;5019048;27;46077;-50
2023/09/10 13:44:57;;;;;;;;;;;23.20;57.40;;;;;;5052355;27;45923;-51
2023/09/10 13:47:22;;;;;;;;;;;23.20;57.40;;;;;;5028978;27;45896;-49
2023/09/10 13:49:48;;;;;;;;;;;23.20;57.50;;;;;;5040750;27;45207;-53
2023/09/10 13:52:13;;;;;;;;;;;23.20;57.50;;;;;;5041729;27;46823;-52
2023/09/10 13:54:39;;;;;;;;;;;23.20;57.50;;;;;;5055318;27;45316;-49
2023/09/10 13:57:04;;;;;;;;;;;23.20;57.50;;;;;;5020400;27;47453;-53
2023/09/10 13:59:30;;;;;;;;;;;23.20;58.10;;;;;;5054690;27;45214;-53
2023/09/10 14:01:55;;;;;;;;;;;23.20;57.50;;;;;;5035882;27;46216;-50
2023/09/10 14:04:24;;;;;;;;;;;23.20;57.50;;;;;;5046430;27;46394;-51
2023/09/10 14:06:49;;;;;;;;;;;23.20;57.50;;;;;;5042370;27;46000;-51
2023/09/10 14:09:15;;;;;;;;;;;23.20;57.50;;;;;;5053068;27;45062;-52
2023/09/10 14:11:40;;;;;;;;;;;23.20;57.50;;;;;;5047086;27;46317;-52
2023/09/10 14:14:06;;;;;;;;;;;23.20;57.50;;;;;;5044787;27;45446;-51
2023/09/10 14:16:31;;;;;;;;;;;23.20;57.50;;;;;;5037921;27;46332;-50
2023/09/10 14:18:57;;;;;;;;;;;23.20;57.50;;;;;;5054938;27;45903;-49
2023/09/10 14:21:22;;;;;;;;;;;23.20;57.50;;;;;;5042228;27;46081;-50
2023/09/10 14:23:48;;;;;;;;;;;23.20;57.60;;;;;;5048582;27;45822;-49
2023/09/10 14:26:13;;;;;;;;;;;23.20;57.50;;;;;;5039359;27;46137;-53
2023/09/10 14:28:39;;;;;;;;;;;23.20;57.60;;;;;;5058441;27;44744;-50
2023/09/10 14:31:04;;;;;;;;;;;23.20;57.60;;;;;;5038657;27;46309;-50
2023/09/10 14:33:29;;;;;;;;;;;23.20;57.60;;;;;;5048078;27;45231;-50
2023/09/10 14:35:55;;;;;;;;;;;23.20;57.60;;;;;;5044786;27;46134;-55
2023/09/10 14:38:20;;;;;;;;;;;23.20;57.60;;;;;;5044351;27;44811;-54
2023/09/10 14:40:46;;;;;;;;;;;23.20;57.60;;;;;;5012763;27;46795;-52
2023/09/10 14:43:11;;;;;;;;;;;23.20;57.60;;;;;;5025662;27;46115;-54
2023/09/10 14:45:37;;;;;;;;;;;23.20;57.60;;;;;;5031159;27;46064;-53
2023/09/10 14:48:03;;;;;;;;;;;23.20;57.60;;;;;;5037315;27;45960;-52
2023/09/10 14:50:28;;;;;;;;;;;23.20;57.60;;;;;;5027114;27;45864;-55
2023/09/10 14:52:54;;;;;;;;;;;23.20;57.60;;;;;;5039689;27;45953;-55
2023/09/10 14:55:20;;;;;;;;;;;23.20;57.70;;;;;;5016896;27;45889;-54
2023/09/10 14:57:46;;;;;;;;;;;23.20;57.60;;;;;;5044381;27;45573;-52
2023/09/10 15:00:11;;;;;;;;;;;23.20;57.60;;;;;;5033535;27;46015;-51
2023/09/10 15:02:37;;;;;;;;;;;23.20;57.60;;;;;;5030521;27;45476;-52
2023/09/10 15:05:03;;;;;;;;;;;23.20;57.60;;;;;;5027129;27;45025;-52
2023/09/10 15:07:30;;;;;;;;;;;23.20;57.60;;;;;;5030878;27;45111;-51
2023/09/10 15:09:56;;;;;;;;;;;23.20;57.60;;;;;;5039676;27;45934;-51
2023/09/10 15:12:21;;;;;;;;;;;23.20;57.60;;;;;;5035439;27;46712;-52
2023/09/10 15:14:47;;;;;;;;;;;23.20;57.70;;;;;;5047362;27;45324;-51
2023/09/10 15:17:12;;;;;;;;;;;23.20;57.70;;;;;;5027386;27;45870;-51
2023/09/10 15:19:38;;;;;;;;;;;23.20;57.70;;;;;;5049753;27;46454;-51
2023/09/10 15:22:04;;;;;;;;;;;23.20;57.70;;;;;;5039287;27;46489;-53
2023/09/10 15:24:29;;;;;;;;;;;23.30;57.70;;;;;;5032374;27;46496;-50
2023/09/10 15:26:55;;;;;;;;;;;23.30;58.00;;;;;;5026279;27;45537;-52
2023/09/10 15:29:20;;;;;;;;;;;23.20;58.00;;;;;;5039607;27;45265;-50
2023/09/10 15:31:46;;;;;;;;;;;23.20;57.90;;;;;;5020288;27;45951;-53
2023/09/10 15:34:11;;;;;;;;;;;23.20;57.80;;;;;;5027696;27;45364;-52
2023/09/10 15:36:38;;;;;;;;;;;23.20;57.80;;;;;;5018877;27;45322;-52
2023/09/10 15:39:04;;;;;;;;;;;23.30;57.80;;;;;;5023432;27;45860;-50
2023/09/10 15:41:30;;;;;;;;;;;23.20;57.80;;;;;;5026943;27;46030;-51
2023/09/10 15:43:56;;;;;;;;;;;23.30;57.80;;;;;;5046708;27;46101;-51
2023/09/10 15:46:22;;;;;;;;;;;23.30;57.80;;;;;;5028353;27;45466;-50
2023/09/10 15:48:47;;;;;;;;;;;23.30;57.80;;;;;;5043919;27;45462;-50
2023/09/10 15:51:13;;;;;;;;;;;23.30;57.80;;;;;;5038982;27;45308;-50
2023/09/10 15:53:38;;;;;;;;;;;23.30;57.80;;;;;;5048306;27;45264;-53
2023/09/10 15:56:04;;;;;;;;;;;23.30;57.80;;;;;;5038709;27;46038;-51
2023/09/10 15:58:29;;;;;;;;;;;23.30;57.80;;;;;;5045321;27;45886;-53
2023/09/10 16:00:55;;;;;;;;;;;23.30;57.80;;;;;;5026885;27;45940;-51
2023/09/10 16:03:20;;;;;;;;;;;23.30;57.80;;;;;;5044467;27;45729;-52
2023/09/10 16:05:46;;;;;;;;;;;23.30;57.80;;;;;;5035219;27;45944;-49
2023/09/10 16:08:12;;;;;;;;;;;23.30;57.80;;;;;;5049774;27;45946;-51
2023/09/10 16:10:38;;;;;;;;;;;23.30;57.90;;;;;;5015543;27;44924;-52
2023/09/10 16:13:05;;;;;;;;;;;23.30;57.80;;;;;;5032333;27;45389;-51
2023/09/10 16:15:31;;;;;;;;;;;23.30;57.80;;;;;;5032034;27;47522;-51
2023/09/10 16:17:57;;;;;;;;;;;23.30;57.80;;;;;;5048513;27;45874;-50
2023/09/10 16:20:22;;;;;;;;;;;23.30;57.80;;;;;;5033077;27;45927;-51
2023/09/10 16:22:47;;;;;;;;;;;23.30;57.80;;;;;;5044377;27;45421;-52
2023/09/10 16:25:13;;;;;;;;;;;23.30;57.90;;;;;;5041228;27;46510;-50
2023/09/10 16:27:38;;;;;;;;;;;23.30;57.90;;;;;;5043226;27;45909;-51
2023/09/10 16:30:05;;;;;;;;;;;23.30;57.90;;;;;;5048464;27;46110;-52
2023/09/10 16:32:31;;;;;;;;;;;23.30;57.90;;;;;;5024657;27;45650;-53
2023/09/10 16:34:56;;;;;;;;;;;23.30;57.90;;;;;;5052857;27;44736;-50
2023/09/10 16:37:22;;;;;;;;;;;23.30;57.90;;;;;;5023894;27;46549;-49
2023/09/10 16:39:47;;;;;;;;;;;23.30;57.90;;;;;;5055198;27;46021;-52
2023/09/10 16:42:12;;;;;;;;;;;23.30;57.90;;;;;;5047495;27;45827;-51
2023/09/10 16:44:38;;;;;;;;;;;23.30;57.90;;;;;;5048526;27;45332;-51
2023/09/10 16:47:03;;;;;;;;;;;23.30;57.90;;;;;;5027702;27;45257;-53
2023/09/10 16:49:29;;;;;;;;;;;23.30;57.90;;;;;;5040438;27;46642;-52
2023/09/10 16:51:54;;;;;;;;;;;23.30;57.90;;;;;;5047144;27;45949;-51
2023/09/10 16:54:20;;;;;;;;;;;23.30;57.90;;;;;;5046448;27;45470;-52
2023/09/10 16:56:45;;;;;;;;;;;23.30;57.90;;;;;;5043440;27;46523;-50
2023/09/10 16:59:11;;;;;;;;;;;23.30;57.90;;;;;;5056335;27;45954;-49
2023/09/10 17:01:36;;;;;;;;;;;23.30;57.90;;;;;;5024847;27;46391;-51
2023/09/10 17:04:02;;;;;;;;;;;23.30;57.90;;;;;;5045682;27;44733;-49
2023/09/10 17:06:27;;;;;;;;;;;23.40;57.90;;;;;;5023015;27;45258;-50
2023/09/10 17:08:53;;;;;;;;;;;23.30;57.90;;;;;;5056932;27;46017;-53
2023/09/10 17:11:18;;;;;;;;;;;23.40;57.90;;;;;;5044180;27;46057;-54